Time;durP1;ratioP1;P1;durP2;ratioP2;P2;SDS_P1;SDS_P2;PMS_P1;PMS_P2;Temp;Humidity;BMP_temperature;BMP_pressure;BME280_temperature;BME280_humidity;BME280_pressure;Samples;Min_cycle;Max_cycle;Signal;HPM_P1;HPM_P2
2023/03/06 00:00:32;;;;;;;4.85;2.92;;;;;;;-0.26;63.06;97936.34;5055033;28;20356;-52
2023/03/06 00:02:57;;;;;;;5.68;3.30;;;;;;;-0.30;63.01;97933.06;5054449;28;20044;-53
2023/03/06 00:05:23;;;;;;;4.60;2.90;;;;;;;-0.34;62.71;97936.84;5052562;28;20790;-53
2023/03/06 00:07:49;;;;;;;4.90;3.20;;;;;;;-0.38;62.98;97928.31;5054779;28;20112;-52
2023/03/06 00:10:20;;;;;;;5.00;3.08;;;;;;;-0.57;63.43;97897.16;5054180;28;20041;-49
2023/03/06 00:12:46;;;;;;;4.75;2.75;;;;;;;-0.38;63.08;97919.59;5054653;28;20116;-51
2023/03/06 00:15:12;;;;;;;4.53;2.83;;;;;;;-0.35;63.26;97922.88;5042116;28;20112;-51
2023/03/06 00:17:38;;;;;;;4.35;2.80;;;;;;;-0.54;63.01;97889.06;5034442;28;20120;-54
2023/03/06 00:20:05;;;;;;;4.15;2.50;;;;;;;-0.35;62.91;97924.66;5034635;28;20036;-65
2023/03/06 00:22:31;;;;;;;5.03;3.00;;;;;;;-0.37;62.98;97930.00;5034862;28;20514;-54
2023/03/06 00:24:56;;;;;;;4.00;2.83;;;;;;;-0.33;62.37;97923.63;5034304;28;20045;-51
2023/03/06 00:27:24;;;;;;;3.30;2.40;;;;;;;-0.29;62.23;97924.25;5048429;28;20405;-53
2023/03/06 00:30:00;;;;;;;3.72;2.40;;;;;;;-0.31;62.49;97920.88;5054632;28;20083;-53
2023/03/06 00:32:27;;;;;;;3.53;2.80;;;;;;;-0.26;62.23;97928.47;5036405;28;20052;-52
2023/03/06 00:34:54;;;;;;;4.13;2.58;;;;;;;-0.25;62.01;97925.72;5051930;28;20363;-53
2023/03/06 00:37:21;;;;;;;3.75;2.67;;;;;;;-0.24;62.28;97927.44;5054037;28;20043;-54
2023/03/06 00:39:48;;;;;;;3.50;2.70;;;;;;;-0.22;62.16;97922.03;5051560;28;20049;-51
2023/03/06 00:42:15;;;;;;;4.15;2.60;;;;;;;-0.28;61.96;97919.84;5033875;28;20160;-50
2023/03/06 00:44:40;;;;;;;5.03;2.92;;;;;;;-0.38;62.07;97903.81;5034014;28;20029;-54
2023/03/06 00:47:06;;;;;;;3.42;2.33;;;;;;;-0.24;61.67;97916.91;5033422;28;20345;-60
2023/03/06 00:49:32;;;;;;;8.05;2.70;;;;;;;-0.20;61.51;97923.63;5041681;28;20033;-54
2023/03/06 00:51:58;;;;;;;4.15;2.25;;;;;;;-0.29;61.17;97908.47;5052826;28;20048;-55
2023/03/06 00:54:23;;;;;;;3.53;2.38;;;;;;;-0.15;61.41;97924.16;5053680;28;20450;-55
2023/03/06 00:56:49;;;;;;;6.18;3.00;;;;;;;-0.27;60.84;97905.75;5042217;28;20044;-54
2023/03/06 00:59:14;;;;;;;4.57;2.50;;;;;;;-0.13;61.08;97939.81;5034067;28;20080;-50
2023/03/06 01:01:39;;;;;;;3.55;2.45;;;;;;;-0.12;61.24;97930.16;5032928;28;20383;-52
2023/03/06 01:04:05;;;;;;;2.53;2.05;;;;;;;-0.09;60.81;97935.22;5032779;28;20037;-51
2023/03/06 01:06:31;;;;;;;3.80;2.25;;;;;;;-0.11;60.52;97932.69;5034029;28;20029;-52
2023/03/06 01:08:56;;;;;;;3.42;2.35;;;;;;;-0.09;60.60;97935.22;5033772;28;20541;-55
2023/03/06 01:11:22;;;;;;;3.47;2.35;;;;;;;-0.08;60.25;97932.50;5042706;28;20025;-53
2023/03/06 01:13:47;;;;;;;4.13;2.70;;;;;;;-0.12;60.41;97922.28;5046014;28;20034;-52
2023/03/06 01:16:15;;;;;;;4.57;2.45;;;;;;;-0.10;60.38;97926.50;5033742;28;20037;-53
2023/03/06 01:18:41;;;;;;;4.40;2.40;;;;;;;-0.10;60.11;97925.63;5033693;28;20025;-56
2023/03/06 01:21:07;;;;;;;5.72;2.95;;;;;;;-0.18;60.80;97924.38;5033221;28;20037;-55
2023/03/06 01:23:33;;;;;;;2.75;2.17;;;;;;;-0.16;60.41;97929.50;5032638;28;20528;-52
2023/03/06 01:25:59;;;;;;;4.32;2.33;;;;;;;-0.18;60.26;97927.00;5032682;28;20160;-51
2023/03/06 01:28:27;;;;;;;5.03;2.78;;;;;;;-0.27;60.54;97924.97;5037728;28;20053;-51
2023/03/06 01:30:53;;;;;;;3.53;2.05;;;;;;;-0.30;60.42;97930.44;5052555;28;20043;-50
2023/03/06 01:33:18;;;;;;;3.63;2.30;;;;;;;-0.33;60.71;97934.13;5046316;28;20451;-54
2023/03/06 01:35:44;;;;;;;2.78;2.10;;;;;;;-0.32;60.30;97935.81;5033382;28;20025;-50
2023/03/06 01:38:10;;;;;;;3.33;1.92;;;;;;;-0.34;60.50;97935.09;5033338;28;20030;-53
2023/03/06 01:40:36;;;;;;;3.85;2.35;;;;;;;-0.50;60.29;97910.75;5032862;28;20433;-50
2023/03/06 01:43:27;;;;;;;3.25;1.92;;;;;;;-0.33;60.70;97939.41;5032375;28;20529;-50
2023/03/06 01:46:28;;;;;;;4.78;2.42;;;;;;;-0.28;60.81;97930.34;5032557;28;20040;-52
2023/03/06 01:48:57;;;;;;;2.55;2.05;;;;;;;-0.36;60.54;97938.75;5032052;28;20049;-50
2023/03/06 01:51:27;;;;;;;4.03;2.00;;;;;;;-0.42;60.60;97939.97;5032696;28;20091;-55
2023/03/06 01:53:54;;;;;;;2.35;2.05;;;;;;;-0.43;60.95;97935.66;5032541;28;20470;-52
2023/03/06 01:56:21;;;;;;;2.85;2.00;;;;;;;-0.45;60.93;97943.69;5050678;28;20052;-50
2023/03/06 01:58:48;;;;;;;3.53;2.35;;;;;;;-0.47;60.83;97937.69;5040381;28;20126;-50
2023/03/06 02:01:14;;;;;;;4.13;2.22;;;;;;;-0.49;60.86;97936.09;5033036;28;20032;-50
2023/03/06 02:03:41;;;;;;;4.95;2.53;;;;;;;-0.46;61.45;97942.00;5032510;28;20040;-64
2023/03/06 02:06:07;;;;;;;3.35;2.30;;;;;;;-0.50;61.44;97937.03;5032599;28;20037;-51
2023/03/06 02:08:33;;;;;;;3.28;2.38;;;;;;;-0.45;61.62;97948.94;5032893;28;20035;-49
2023/03/06 02:11:12;;;;;;;3.67;2.30;;;;;;;-0.40;61.81;97943.34;5032123;28;20045;-50
2023/03/06 02:13:58;;;;;;;3.53;2.45;;;;;;;-0.43;61.67;97954.06;5031739;28;20052;-52
2023/03/06 02:16:26;;;;;;;3.67;2.60;;;;;;;-0.40;61.79;97950.41;5032631;28;20395;-54
2023/03/06 02:18:52;;;;;;;4.30;2.80;;;;;;;-0.42;61.80;97953.13;5036053;28;20123;-48
2023/03/06 02:21:27;;;;;;;3.35;2.53;;;;;;;-0.46;62.14;97943.75;5032154;28;20040;-57
2023/03/06 02:24:23;;;;;;;4.85;2.70;;;;;;;-0.42;61.88;97949.69;5032818;28;20108;-49
2023/03/06 02:26:51;;;;;;;3.70;2.70;;;;;;;-0.49;62.19;97942.16;5032601;28;20033;-56
2023/03/06 02:29:26;;;;;;;3.67;2.80;;;;;;;-0.51;62.26;97946.69;5031318;28;20458;-52
2023/03/06 02:31:52;;;;;;;6.88;3.17;;;;;;;-0.59;62.35;97947.22;5032461;28;20025;-52
2023/03/06 02:34:20;;;;;;;4.13;2.95;;;;;;;-0.58;62.96;97945.41;5048096;28;20110;-52
2023/03/06 02:36:52;;;;;;;4.53;3.28;;;;;;;-0.59;62.72;97948.97;5051973;28;20037;-53
2023/03/06 02:39:22;;;;;;;4.90;2.92;;;;;;;-0.69;63.06;97929.50;5052044;28;20120;-51
2023/03/06 02:41:48;;;;;;;4.30;2.97;;;;;;;-0.65;62.92;97942.34;5042208;28;20044;-52
2023/03/06 02:44:13;;;;;;;5.18;3.30;;;;;;;-0.67;62.88;97938.97;5032399;28;20045;-52
2023/03/06 02:46:39;;;;;;;4.65;2.90;;;;;;;-0.76;63.15;97923.81;5032087;28;20116;-52
2023/03/06 02:49:04;;;;;;;3.78;2.80;;;;;;;-0.67;63.27;97938.13;5031935;28;20091;-52
2023/03/06 02:51:29;;;;;;;6.68;3.10;;;;;;;-0.65;62.92;97944.13;5033366;28;20448;-52
2023/03/06 02:53:55;;;;;;;4.00;2.83;;;;;;;-0.62;63.28;97950.00;5033848;28;20068;-51
2023/03/06 02:56:20;;;;;;;4.70;3.28;;;;;;;-0.68;62.89;97931.19;5044438;28;20400;-52
2023/03/06 02:58:46;;;;;;;3.80;3.40;;;;;;;-0.56;62.79;97940.06;5056086;28;20041;-53
2023/03/06 03:01:12;;;;;;;4.20;3.30;;;;;;;-0.56;62.89;97938.25;5056406;28;20037;-49
2023/03/06 03:03:37;;;;;;;7.22;3.42;;;;;;;-0.68;62.59;97912.81;5056226;28;20075;-52
2023/03/06 03:06:06;;;;;;;4.72;3.75;;;;;;;-0.47;63.23;97944.72;5055762;28;20029;-51
2023/03/06 03:08:32;;;;;;;5.03;3.75;;;;;;;-0.54;63.56;97946.88;5054722;28;20099;-51
2023/03/06 03:10:59;;;;;;;5.05;3.40;;;;;;;-0.54;63.44;97949.53;5044651;28;20037;-51
2023/03/06 03:13:24;;;;;;;6.28;3.50;;;;;;;-0.55;64.05;97944.38;5036194;28;20037;-55
2023/03/06 03:16:02;;;;;;;6.15;3.67;;;;;;;-0.53;64.11;97940.69;5035701;28;20033;-53
2023/03/06 03:18:28;;;;;;;5.95;4.18;;;;;;;-0.52;64.12;97945.00;5037218;28;20040;-51
2023/03/06 03:20:54;;;;;;;5.18;3.58;;;;;;;-0.53;64.29;97943.31;5055598;28;20036;-52
2023/03/06 03:23:20;;;;;;;5.43;3.58;;;;;;;-0.53;64.74;97945.13;5055801;28;20505;-51
2023/03/06 03:25:46;;;;;;;5.38;3.80;;;;;;;-0.56;64.59;97946.16;5055455;28;20059;-54
2023/03/06 03:28:11;;;;;;;4.95;3.60;;;;;;;-0.52;64.92;97950.25;5040920;28;20025;-49
2023/03/06 03:30:38;;;;;;;5.72;3.42;;;;;;;-0.52;64.42;97944.19;5046861;28;20036;-51
2023/03/06 03:33:04;;;;;;;6.13;4.18;;;;;;;-0.51;64.42;97944.06;5055522;28;20425;-53
2023/03/06 03:35:29;;;;;;;5.53;3.70;;;;;;;-0.54;64.47;97952.16;5054915;28;20059;-51
2023/03/06 03:37:55;;;;;;;4.88;3.88;;;;;;;-0.56;64.87;97946.16;5054880;28;20115;-51
2023/03/06 03:40:20;;;;;;;6.47;3.88;;;;;;;-0.54;65.21;97957.41;5053436;28;20060;-51
2023/03/06 03:42:46;;;;;;;4.90;3.88;;;;;;;-0.67;64.90;97925.00;5035186;28;20092;-64
2023/03/06 03:45:11;;;;;;;6.43;3.92;;;;;;;-0.51;64.57;97959.00;5035261;28;20034;-50
2023/03/06 03:47:37;;;;;;;5.50;3.95;;;;;;;-0.56;64.70;97948.78;5034788;28;20440;-51
2023/03/06 03:50:03;;;;;;;7.25;4.30;;;;;;;-0.57;65.05;97957.59;5046021;28;20031;-51
2023/03/06 03:52:29;;;;;;;6.68;4.18;;;;;;;-0.63;64.87;97950.13;5053768;28;20033;-53
2023/03/06 03:54:54;;;;;;;5.18;4.07;;;;;;;-1.02;65.19;97889.56;5054634;28;20112;-51
2023/03/06 03:57:20;;;;;;;6.88;4.07;;;;;;;-0.67;65.14;97940.75;5054241;28;20025;-52
2023/03/06 03:59:45;;;;;;;6.53;4.25;;;;;;;-0.61;65.26;97956.13;5053735;28;20048;-52
2023/03/06 04:02:10;;;;;;;7.28;3.90;;;;;;;-0.81;65.43;97918.00;5053599;28;20040;-49
2023/03/06 04:04:36;;;;;;;7.43;4.63;;;;;;;-0.63;65.15;97948.31;5032966;28;20025;-51
2023/03/06 04:07:03;;;;;;;7.03;4.72;;;;;;;-0.62;65.26;97963.16;5034371;28;20037;-51
2023/03/06 04:09:28;;;;;;;8.02;5.10;;;;;;;-0.70;65.15;97949.69;5045139;28;20087;-50
2023/03/06 04:11:54;;;;;;;6.95;4.57;;;;;;;-0.70;65.29;97949.69;5053930;28;20410;-50
2023/03/06 04:14:19;;;;;;;6.50;4.80;;;;;;;-0.77;65.31;97946.59;5054604;28;20521;-49
2023/03/06 04:16:45;;;;;;;8.27;5.07;;;;;;;-0.73;65.79;97950.72;5054502;28;20039;-52
2023/03/06 04:19:10;;;;;;;7.13;5.18;;;;;;;-0.68;65.00;97954.84;5054616;28;20036;-51
2023/03/06 04:21:36;;;;;;;6.38;4.70;;;;;;;-0.67;65.46;97952.09;5054646;28;20029;-52
2023/03/06 04:24:01;;;;;;;8.00;5.43;;;;;;;-0.63;65.28;97952.75;5051912;28;20036;-53
2023/03/06 04:26:26;;;;;;;8.07;4.88;;;;;;;-0.59;65.62;97951.59;5052891;28;20044;-52
2023/03/06 04:28:52;;;;;;;8.30;5.35;;;;;;;-0.60;65.30;97960.44;5034629;28;20124;-53
2023/03/06 04:31:17;;;;;;;7.05;4.88;;;;;;;-0.67;65.71;97944.22;5034415;28;20476;-53
2023/03/06 04:33:43;;;;;;;9.10;5.22;;;;;;;-0.63;65.84;97947.50;5032968;28;20033;-53
2023/03/06 04:36:23;;;;;;;8.18;5.28;;;;;;;-0.54;65.84;97948.69;5034413;28;20282;-53
2023/03/06 04:38:49;;;;;;;7.55;4.93;;;;;;;-0.50;65.22;97958.06;5033648;28;20300;-65
2023/03/06 04:41:15;;;;;;;8.85;5.03;;;;;;;-0.51;65.28;97959.84;5034561;28;20045;-54
2023/03/06 04:43:40;;;;;;;13.10;6.22;;;;;;;-0.47;65.47;97960.47;5037499;28;20037;-54
2023/03/06 04:46:05;;;;;;;9.35;5.47;;;;;;;-0.41;64.84;97951.34;5051660;28;20452;-54
2023/03/06 04:48:31;;;;;;;8.30;5.13;;;;;;;-0.40;65.16;97958.31;5034425;28;20029;-53
2023/03/06 04:50:56;;;;;;;8.20;4.88;;;;;;;-0.40;65.13;97953.88;5033855;28;20085;-51
2023/03/06 04:53:22;;;;;;;6.70;4.70;;;;;;;-0.37;65.26;97952.84;5052304;28;20124;-50
2023/03/06 04:55:47;;;;;;;7.60;4.93;;;;;;;-0.35;65.45;97957.06;5053432;28;20077;-54
2023/03/06 04:58:13;;;;;;;8.30;5.00;;;;;;;-0.35;65.17;97953.56;5053898;28;20131;-55
2023/03/06 05:00:39;;;;;;;10.63;5.00;;;;;;;-0.27;64.98;97959.16;5053598;28;20029;-56
2023/03/06 05:03:04;;;;;;;8.65;4.90;;;;;;;-0.61;65.02;97895.66;5052974;28;20098;-52
2023/03/06 05:05:30;;;;;;;7.25;5.07;;;;;;;-0.18;64.76;97962.97;5051736;28;20036;-51
2023/03/06 05:07:56;;;;;;;9.70;5.32;;;;;;;-0.13;64.51;97973.19;5016187;28;20041;-51
2023/03/06 05:10:21;;;;;;;8.25;5.07;;;;;;;-0.14;64.02;97969.72;5033581;28;20107;-53
2023/03/06 05:12:47;;;;;;;8.27;5.28;;;;;;;-0.17;64.10;97960.25;5033647;28;20029;-54
2023/03/06 05:15:13;;;;;;;7.47;5.00;;;;;;;-0.07;63.89;97976.28;5033402;28;20029;-52
2023/03/06 05:17:39;;;;;;;8.07;4.78;;;;;;;-0.07;63.92;97962.25;5033153;28;20035;-53
2023/03/06 05:20:08;;;;;;;7.00;5.18;;;;;;;0.05;63.40;97971.97;5034454;28;20025;-52
2023/03/06 05:22:34;;;;;;;7.97;5.20;;;;;;;0.06;63.69;97967.53;5032817;28;20040;-51
2023/03/06 05:24:59;;;;;;;11.43;5.47;;;;;;;0.22;63.49;97976.09;5034393;28;20033;-55
2023/03/06 05:27:26;;;;;;;9.35;5.05;;;;;;;0.40;62.80;97973.16;5053521;28;20033;-50
2023/03/06 05:29:51;;;;;;;8.75;4.82;;;;;;;0.55;62.46;97971.25;5050919;28;20444;-65
2023/03/06 05:32:17;;;;;;;7.53;4.53;;;;;;;0.70;61.67;97971.97;5043378;28;20052;-55
2023/03/06 05:34:42;;;;;;;8.55;4.45;;;;;;;0.85;61.41;97972.69;5041170;28;20329;-55
2023/03/06 05:37:08;;;;;;;8.23;4.55;;;;;;;0.92;61.26;97966.00;5038649;28;20498;-50
2023/03/06 05:39:33;;;;;;;7.10;4.68;;;;;;;0.89;60.89;97965.41;5032766;28;20457;-51
2023/03/06 05:41:59;;;;;;;7.85;5.22;;;;;;;0.84;60.91;97977.13;5032756;28;20052;-52
2023/03/06 05:44:29;;;;;;;7.70;5.03;;;;;;;0.79;61.29;97981.03;5032608;28;20087;-57
2023/03/06 05:46:55;;;;;;;7.15;4.85;;;;;;;0.64;61.46;97978.50;5032656;28;20083;-55
2023/03/06 05:49:20;;;;;;;8.40;5.20;;;;;;;0.58;61.75;97981.56;5015454;28;20423;-50
2023/03/06 05:51:46;;;;;;;10.10;5.75;;;;;;;0.58;61.65;97986.84;5031860;28;20025;-53
2023/03/06 05:54:11;;;;;;;8.15;5.47;;;;;;;0.48;61.80;97988.41;5032686;28;20059;-53
2023/03/06 05:56:37;;;;;;;10.13;5.25;;;;;;;0.50;61.43;97992.63;5032399;28;20048;-53
2023/03/06 05:59:02;;;;;;;9.68;5.00;;;;;;;0.32;62.05;97955.25;5049503;28;20098;-52
2023/03/06 06:01:29;;;;;;;8.32;5.35;;;;;;;0.56;61.70;97986.09;5052568;28;20043;-52
2023/03/06 06:03:54;;;;;;;9.48;5.30;;;;;;;0.62;61.80;97983.03;5052047;28;20448;-55
2023/03/06 06:06:20;;;;;;;10.20;5.15;;;;;;;0.76;61.43;97987.34;5052937;28;20032;-57
2023/03/06 06:08:45;;;;;;;7.53;5.07;;;;;;;0.96;61.00;97985.94;5052316;28;20421;-49
2023/03/06 06:11:12;;;;;;;8.32;5.20;;;;;;;1.07;60.54;97955.34;5035804;28;20037;-52
2023/03/06 06:13:38;;;;;;;9.25;4.95;;;;;;;1.57;59.96;97982.47;5032593;28;20044;-51
2023/03/06 06:16:16;;;;;;;8.40;5.20;;;;;;;1.97;59.47;97991.03;5039392;28;20029;-53
2023/03/06 06:18:42;;;;;;;10.95;4.82;;;;;;;2.12;58.49;97987.22;5052191;28;20108;-52
2023/03/06 06:21:10;;;;;;;9.88;5.20;;;;;;;2.32;57.64;97986.69;5047125;28;20086;-54
2023/03/06 06:23:36;;;;;;;7.38;4.97;;;;;;;2.38;57.60;97989.69;5032489;28;20037;-53
2023/03/06 06:26:04;;;;;;;9.55;4.70;;;;;;;2.42;57.42;97980.59;5031547;28;20031;-53
2023/03/06 06:28:29;;;;;;;8.23;5.20;;;;;;;2.40;57.73;97986.94;5032091;28;20022;-53
2023/03/06 06:30:56;;;;;;;13.68;5.13;;;;;;;2.39;56.97;97988.72;5032197;28;20465;-62
2023/03/06 06:33:22;;;;;;;9.10;4.45;;;;;;;2.38;56.85;97992.31;5033002;28;20318;-50
2023/03/06 06:35:48;;;;;;;11.30;5.30;;;;;;;2.35;58.07;97992.56;5032030;28;20021;-52
2023/03/06 06:38:13;;;;;;;7.43;5.10;;;;;;;2.34;57.83;97988.25;5032013;28;20513;-50
2023/03/06 06:40:39;;;;;;;9.60;4.68;;;;;;;2.28;58.12;97970.22;5031196;28;20050;-51
2023/03/06 06:43:05;;;;;;;6.15;4.20;;;;;;;2.34;57.42;97979.50;5032407;28;20095;-53
2023/03/06 06:45:30;;;;;;;9.95;3.92;;;;;;;2.38;57.57;97992.31;5032306;28;20040;-49
2023/03/06 06:47:56;;;;;;;7.80;4.80;;;;;;;2.51;57.67;97999.31;5031305;28;20095;-61
2023/03/06 06:50:21;;;;;;;12.00;4.40;;;;;;;2.48;56.93;97996.91;5032285;28;20037;-51
2023/03/06 06:52:47;;;;;;;8.95;4.28;;;;;;;2.42;56.85;97995.59;5032331;28;20033;-51
2023/03/06 06:55:12;;;;;;;6.20;3.88;;;;;;;2.42;57.64;98001.72;5039349;28;20460;-55
2023/03/06 06:57:40;;;;;;;6.05;3.38;;;;;;;2.49;56.84;98006.53;5051785;28;20037;-53
2023/03/06 07:00:06;;;;;;;7.22;3.72;;;;;;;2.54;56.99;98013.16;5046848;28;20025;-53
2023/03/06 07:02:32;;;;;;;5.93;3.03;;;;;;;2.64;55.37;98000.03;5032458;28;20026;-56
2023/03/06 07:04:57;;;;;;;6.07;2.88;;;;;;;2.53;54.86;98000.03;5031754;28;20120;-60
2023/03/06 07:07:23;;;;;;;8.15;3.35;;;;;;;2.44;56.12;97999.81;5032135;28;20052;-52
2023/03/06 07:09:48;;;;;;;8.60;3.47;;;;;;;2.19;55.78;97955.09;5031715;28;20029;-51
2023/03/06 07:12:14;;;;;;;5.88;3.10;;;;;;;2.53;56.49;98000.03;5032254;28;20371;-51
2023/03/06 07:14:41;;;;;;;3.92;2.95;;;;;;;2.69;55.09;97994.41;5039341;28;20041;-52
2023/03/06 07:17:07;;;;;;;6.20;3.10;;;;;;;2.75;54.80;98001.03;5051383;28;20359;-51
2023/03/06 07:19:33;;;;;;;6.18;3.00;;;;;;;2.72;55.08;98007.38;5047131;28;20040;-56
2023/03/06 07:21:59;;;;;;;5.68;2.92;;;;;;;2.73;54.99;98004.63;5049237;28;20060;-52
2023/03/06 07:24:25;;;;;;;6.05;2.97;;;;;;;2.83;54.49;98002.13;5050330;28;20029;-55
2023/03/06 07:26:51;;;;;;;6.30;2.92;;;;;;;2.92;53.45;98000.56;5046752;28;20337;-71
2023/03/06 07:29:16;;;;;;;4.95;2.80;;;;;;;2.98;53.68;97996.56;5042598;28;20036;-63
2023/03/06 07:31:42;;;;;;;4.65;2.47;;;;;;;3.18;53.67;98007.38;5051150;28;20104;-65
2023/03/06 07:34:12;;;;;;;7.25;2.28;;;;;;;3.57;52.21;98008.63;5044960;28;20037;-65
2023/03/06 07:36:39;;;;;;;6.85;2.50;;;;;;;3.70;51.56;98012.94;5047633;28;20036;-64
2023/03/06 07:39:08;;;;;;;3.05;2.13;;;;;;;3.71;50.90;98009.31;5051044;28;20375;-63
2023/03/06 07:41:34;;;;;;;6.85;2.80;;;;;;;3.73;50.43;98013.50;5055136;28;20529;-64
2023/03/06 07:44:00;;;;;;;7.97;2.40;;;;;;;3.83;50.48;98013.59;5054632;28;20025;-65
2023/03/06 07:46:25;;;;;;;2.38;1.67;;;;;;;3.74;48.91;98009.06;5054884;28;20525;-62
2023/03/06 07:48:51;;;;;;;4.85;2.20;;;;;;;3.61;49.98;98016.31;5054516;28;20111;-65
2023/03/06 07:51:18;;;;;;;4.57;2.30;;;;;;;3.54;50.15;98018.63;5050365;28;20180;-62
2023/03/06 07:53:44;;;;;;;6.85;2.28;;;;;;;3.36;49.91;98015.63;5031411;28;20029;-54
2023/03/06 07:56:10;;;;;;;5.93;2.10;;;;;;;3.25;50.71;98024.44;5035476;28;20034;-54
2023/03/06 07:58:37;;;;;;;2.70;2.10;;;;;;;3.23;50.46;98026.34;5018194;28;20065;-54
2023/03/06 08:01:08;;;;;;;4.65;2.38;;;;;;;3.41;50.94;98024.06;5050847;28;20090;-55
2023/03/06 08:03:35;;;;;;;5.10;2.55;;;;;;;3.54;50.08;98023.94;5043015;28;20034;-56
2023/03/06 08:06:11;;;;;;;4.80;2.70;;;;;;;3.64;50.65;98026.69;5034209;28;20053;-61
2023/03/06 08:08:38;;;;;;;4.32;2.38;;;;;;;3.53;50.03;98028.38;5034927;28;20467;-53
2023/03/06 08:11:05;;;;;;;5.80;3.00;;;;;;;3.37;50.65;98034.06;5044041;28;20033;-55
2023/03/06 08:13:30;;;;;;;4.85;2.85;;;;;;;3.22;52.02;98019.38;5053896;28;20021;-67
2023/03/06 08:15:55;;;;;;;7.45;3.28;;;;;;;3.27;51.63;98031.28;5053122;28;20087;-54
2023/03/06 08:18:21;;;;;;;7.05;2.72;;;;;;;3.30;51.00;98022.28;5054091;28;20459;-52
2023/03/06 08:20:46;;;;;;;9.63;3.00;;;;;;;3.24;51.38;98023.59;5053447;28;20045;-52
2023/03/06 08:23:12;;;;;;;9.95;2.58;;;;;;;3.22;50.63;98025.53;5052836;28;20064;-52
2023/03/06 08:25:38;;;;;;;5.30;2.60;;;;;;;3.27;50.90;98023.34;5053657;28;20432;-56
2023/03/06 08:28:03;;;;;;;6.32;2.50;;;;;;;3.32;51.49;98024.78;5048235;28;20489;-56
2023/03/06 08:30:29;;;;;;;2.95;1.95;;;;;;;3.35;50.38;98025.41;5053556;28;20036;-57
2023/03/06 08:32:54;;;;;;;5.00;2.10;;;;;;;3.39;50.84;98031.28;5041441;28;20036;-52
2023/03/06 08:35:20;;;;;;;5.15;2.50;;;;;;;3.49;51.31;98026.94;5043353;28;20025;-56
2023/03/06 08:37:45;;;;;;;5.55;2.42;;;;;;;3.48;50.69;98000.59;5043427;28;20128;-54
2023/03/06 08:40:12;;;;;;;4.10;2.42;;;;;;;3.82;50.47;98030.44;5043359;28;20037;-54
2023/03/06 08:42:38;;;;;;;4.22;2.53;;;;;;;3.85;50.52;98026.72;5041041;28;20064;-53
2023/03/06 08:45:05;;;;;;;5.28;2.30;;;;;;;3.76;50.95;98028.31;5043401;28;20056;-55
2023/03/06 08:47:30;;;;;;;4.22;2.80;;;;;;;3.70;50.71;98034.09;5041763;28;20029;-55
2023/03/06 08:49:57;;;;;;;8.18;3.03;;;;;;;3.64;50.99;98034.63;5042128;28;20368;-58
2023/03/06 08:52:23;;;;;;;4.95;2.72;;;;;;;3.56;49.88;98033.41;5041931;28;20071;-54
2023/03/06 08:54:48;;;;;;;5.82;2.70;;;;;;;3.38;49.61;98034.91;5043298;28;20411;-58
2023/03/06 08:57:13;;;;;;;6.10;3.17;;;;;;;3.28;50.42;98040.91;5040710;28;20025;-52
2023/03/06 08:59:40;;;;;;;4.65;3.00;;;;;;;3.33;50.08;98032.63;5040366;28;20032;-54
2023/03/06 09:02:06;;;;;;;5.32;2.63;;;;;;;3.34;49.75;98044.03;5042423;28;20034;-58
2023/03/06 09:04:32;;;;;;;4.97;2.95;;;;;;;3.29;50.43;98045.22;5040128;28;20025;-62
2023/03/06 09:06:59;;;;;;;5.88;3.08;;;;;;;3.25;50.39;98037.66;5043999;28;20051;-57
2023/03/06 09:09:24;;;;;;;6.68;2.58;;;;;;;3.31;50.10;98039.84;5042341;28;20387;-64
2023/03/06 09:11:50;;;;;;;5.82;3.17;;;;;;;3.57;50.26;98039.56;5036837;28;20037;-61
2023/03/06 09:14:15;;;;;;;9.02;3.00;;;;;;;4.09;48.38;98044.22;5042636;28;20040;-56
2023/03/06 09:16:41;;;;;;;6.50;2.25;;;;;;;4.63;46.08;98041.50;5042938;28;20035;-52
2023/03/06 09:19:07;;;;;;;5.68;2.20;;;;;;;4.97;45.10;98044.78;5041536;28;20029;-50
2023/03/06 09:21:32;;;;;;;2.95;1.85;;;;;;;5.20;44.20;98041.94;5040769;28;20526;-55
2023/03/06 09:23:58;;;;;;;3.55;2.00;;;;;;;5.22;43.67;98041.81;5038120;28;20091;-54
2023/03/06 09:26:23;;;;;;;4.57;2.08;;;;;;;5.24;43.71;98043.34;5039669;28;20090;-51
2023/03/06 09:28:49;;;;;;;4.38;2.60;;;;;;;5.25;44.10;98049.50;5040980;28;20432;-55
2023/03/06 09:31:17;;;;;;;3.17;2.03;;;;;;;5.15;44.30;98052.13;5039287;28;20033;-56
2023/03/06 09:33:43;;;;;;;6.43;2.70;;;;;;;4.91;44.51;98042.66;5039662;28;20040;-55
2023/03/06 09:36:14;;;;;;;4.43;2.22;;;;;;;4.85;44.64;98056.44;5046664;28;20348;-55
2023/03/06 09:38:40;;;;;;;5.78;1.90;;;;;;;4.52;44.64;98023.88;5043688;28;20056;-52
2023/03/06 09:41:23;;;;;;;3.50;1.90;;;;;;;4.70;45.38;98063.88;5034489;28;20405;-54
2023/03/06 09:43:53;;;;;;;6.95;1.92;;;;;;;4.35;44.92;98039.41;5032841;28;20334;-58
2023/03/06 09:46:28;;;;;;;5.13;1.70;;;;;;;4.25;45.66;98059.66;5040545;28;20031;-57
2023/03/06 09:49:09;;;;;;;;;;;;;;;4.43;47.41;98063.44;5047955;28;20037;-55
2023/03/06 09:51:54;;;;;;;6.15;1.60;;;;;;;3.91;45.97;98062.44;5042114;28;19913;-54
2023/03/06 09:54:25;;;;;;;;;;;;;;;4.14;47.86;98071.16;5032713;28;20041;-54
2023/03/06 09:56:51;;;;;;;2.75;1.88;;;;;;;3.90;46.28;98066.06;5049492;28;19916;-52
2023/03/06 09:59:20;;;;;;;6.93;1.70;;;;;;;3.64;46.97;98063.72;5051860;28;20041;-59
2023/03/06 10:02:00;;;;;;;3.10;1.77;;;;;;;3.44;47.82;98071.44;5051286;28;20176;-55
2023/03/06 10:04:36;;;;;;;5.40;2.00;;;;;;;3.27;49.93;98073.63;5039765;28;20039;-54
2023/03/06 10:07:17;;;;;;;4.10;1.90;;;;;;;3.37;50.12;98075.53;5045236;28;20045;-63
2023/03/06 10:09:43;;;;;;;4.90;2.30;;;;;;;3.40;49.07;98060.25;5035865;28;20029;-58
2023/03/06 10:12:24;;;;;;;3.50;2.33;;;;;;;3.68;48.74;98060.69;5032475;28;20103;-58
2023/03/06 10:14:58;;;;;;;3.15;1.77;;;;;;;3.71;47.20;98070.19;5041375;28;20473;-60
2023/03/06 10:17:29;;;;;;;4.28;2.35;;;;;;;3.58;46.72;98060.59;5050062;28;20021;-53
2023/03/06 10:19:55;;;;;;;4.30;1.80;;;;;;;3.57;46.49;98064.19;5052147;28;20112;-52
2023/03/06 10:22:37;;;;;;;3.25;1.90;;;;;;;3.72;46.90;98053.34;5041886;28;20100;-59
2023/03/06 10:25:28;;;;;;;3.65;1.80;;;;;;;4.04;46.35;98063.13;5052510;28;20048;-62
2023/03/06 10:27:57;;;;;;;4.47;1.90;;;;;;;4.13;46.30;98061.50;5036175;28;20044;-63
2023/03/06 10:30:31;;;;;;;3.47;2.20;;;;;;;3.96;46.78;98068.22;5031912;28;20041;-54
2023/03/06 10:33:21;;;;;;;4.10;2.33;;;;;;;3.86;47.41;98071.63;5032311;28;20463;-62
2023/03/06 10:35:52;;;;;;;5.32;1.90;;;;;;;3.56;48.06;98075.75;5035774;28;20047;-54
2023/03/06 10:38:26;;;;;;;7.32;2.20;;;;;;;3.34;49.75;98075.75;5032108;28;20037;-55
2023/03/06 10:41:04;;;;;;;2.78;1.92;;;;;;;3.05;51.27;98070.97;5031221;28;20475;-54
2023/03/06 10:43:29;;;;;;;6.95;2.25;;;;;;;2.84;50.89;98079.59;5032522;28;20052;-58
2023/03/06 10:45:56;;;;;;;5.60;2.10;;;;;;;2.41;52.03;98044.09;5031820;28;20419;-55
2023/03/06 10:48:24;;;;;;;4.93;1.98;;;;;;;2.47;54.22;98095.63;5031968;28;20037;-55
2023/03/06 10:50:52;;;;;;;3.00;1.38;;;;;;;2.20;54.24;98083.53;5035318;28;20037;-52
2023/03/06 10:53:27;;;;;;;3.88;1.40;;;;;;;2.00;55.69;98097.22;5050466;28;20529;-54
2023/03/06 10:55:58;;;;;;;1.77;1.10;;;;;;;1.65;56.25;98091.84;5051771;28;20402;-56
2023/03/06 10:58:32;;;;;;;1.60;0.80;;;;;;;1.27;57.05;98057.56;5050673;28;20713;-53
2023/03/06 11:01:03;;;;;;;1.58;1.00;;;;;;;1.41;57.57;98103.19;5031860;28;20448;-53
2023/03/06 11:03:29;;;;;;;3.15;1.30;;;;;;;1.33;57.71;98100.28;5050844;28;20029;-53
2023/03/06 11:06:00;;;;;;;2.83;1.30;;;;;;;1.34;57.38;98107.22;5050822;28;20126;-54
2023/03/06 11:08:25;;;;;;;2.50;1.40;;;;;;;1.22;57.84;98093.97;5050231;28;20041;-53
2023/03/06 11:10:56;;;;;;;1.40;1.25;;;;;;;1.24;58.61;98094.72;5051323;28;20117;-57
2023/03/06 11:13:24;;;;;;;2.50;1.70;;;;;;;1.19;58.81;98103.88;5051838;28;20471;-55
2023/03/06 11:16:02;;;;;;;2.75;1.13;;;;;;;1.21;58.65;98099.34;5054319;28;20029;-56
2023/03/06 11:18:33;;;;;;;3.83;1.40;;;;;;;1.20;59.61;98103.75;5055175;28;20032;-57
2023/03/06 11:21:01;;;;;;;3.15;1.25;;;;;;;1.18;59.21;98094.28;5054860;28;20047;-53
2023/03/06 11:23:38;;;;;;;5.53;1.75;;;;;;;1.31;59.54;98104.81;5052420;28;20029;-57
2023/03/06 11:26:16;;;;;;;4.28;1.73;;;;;;;1.37;60.04;98099.09;5054498;28;20037;-56
2023/03/06 11:28:59;;;;;;;2.80;1.50;;;;;;;1.48;60.00;98107.13;5048909;28;20026;-58
2023/03/06 11:31:30;;;;;;;2.55;1.30;;;;;;;1.66;59.69;98099.69;5042872;28;20121;-51
2023/03/06 11:34:04;;;;;;;4.75;1.38;;;;;;;1.94;59.26;98096.84;5043941;28;20041;-52
2023/03/06 11:36:37;;;;;;;3.90;1.52;;;;;;;2.32;57.99;98090.50;5043419;28;20030;-54
2023/03/06 11:39:16;;;;;;;3.92;1.48;;;;;;;2.73;58.31;98093.63;5044631;28;20079;-55
2023/03/06 11:42:09;;;;;;;3.45;1.50;;;;;;;3.19;56.21;98093.69;5044439;28;20037;-55